sensor_id;sensor_type;location;lat;lon;timestamp;P1;durP1;ratioP1;P2;durP2;ratioP2
8036;SDS011;4061;51.360;7.340;2023-07-30T00:00:32;2.78;;;1.30;;
8036;SDS011;4061;51.360;7.340;2023-07-30T00:03:00;4.03;;;1.77;;
8036;SDS011;4061;51.360;7.340;2023-07-30T00:05:27;1.63;;;1.50;;
8036;SDS011;4061;51.360;7.340;2023-07-30T00:07:54;2.05;;;1.50;;
8036;SDS011;4061;51.360;7.340;2023-07-30T00:10:21;6.32;;;1.23;;
8036;SDS011;4061;51.360;7.340;2023-07-30T00:12:48;3.40;;;1.27;;
8036;SDS011;4061;51.360;7.340;2023-07-30T00:15:15;1.42;;;1.30;;
8036;SDS011;4061;51.360;7.340;2023-07-30T00:17:44;1.95;;;1.40;;
8036;SDS011;4061;51.360;7.340;2023-07-30T00:20:11;1.65;;;1.20;;
8036;SDS011;4061;51.360;7.340;2023-07-30T00:22:38;6.20;;;1.73;;
8036;SDS011;4061;51.360;7.340;2023-07-30T00:25:05;4.68;;;1.23;;
8036;SDS011;4061;51.360;7.340;2023-07-30T00:27:33;10.20;;;1.55;;
8036;SDS011;4061;51.360;7.340;2023-07-30T00:30:00;2.85;;;1.40;;
8036;SDS011;4061;51.360;7.340;2023-07-30T00:32:27;5.18;;;1.67;;
8036;SDS011;4061;51.360;7.340;2023-07-30T00:34:56;7.38;;;1.70;;
8036;SDS011;4061;51.360;7.340;2023-07-30T00:37:23;2.80;;;1.45;;
8036;SDS011;4061;51.360;7.340;2023-07-30T00:39:50;9.38;;;2.28;;
8036;SDS011;4061;51.360;7.340;2023-07-30T00:42:17;7.15;;;2.15;;
8036;SDS011;4061;51.360;7.340;2023-07-30T00:44:44;2.47;;;1.70;;
8036;SDS011;4061;51.360;7.340;2023-07-30T00:47:11;3.13;;;1.50;;
8036;SDS011;4061;51.360;7.340;2023-07-30T00:49:38;2.42;;;2.28;;
8036;SDS011;4061;51.360;7.340;2023-07-30T00:52:06;4.20;;;1.77;;
8036;SDS011;4061;51.360;7.340;2023-07-30T00:54:34;2.50;;;1.95;;
8036;SDS011;4061;51.360;7.340;2023-07-30T00:57:01;2.85;;;1.80;;
8036;SDS011;4061;51.360;7.340;2023-07-30T00:59:28;7.07;;;2.13;;
8036;SDS011;4061;51.360;7.340;2023-07-30T01:01:55;3.40;;;2.53;;
8036;SDS011;4061;51.360;7.340;2023-07-30T01:04:23;3.72;;;2.15;;
8036;SDS011;4061;51.360;7.340;2023-07-30T01:06:50;3.33;;;1.45;;
8036;SDS011;4061;51.360;7.340;2023-07-30T01:09:18;8.90;;;1.80;;
8036;SDS011;4061;51.360;7.340;2023-07-30T01:11:46;15.32;;;3.00;;
8036;SDS011;4061;51.360;7.340;2023-07-30T01:14:13;5.95;;;1.88;;
8036;SDS011;4061;51.360;7.340;2023-07-30T01:16:40;3.20;;;1.90;;
8036;SDS011;4061;51.360;7.340;2023-07-30T01:19:07;2.13;;;2.00;;
8036;SDS011;4061;51.360;7.340;2023-07-30T01:21:36;3.58;;;1.95;;
8036;SDS011;4061;51.360;7.340;2023-07-30T01:24:03;2.83;;;2.20;;
8036;SDS011;4061;51.360;7.340;2023-07-30T01:26:31;2.22;;;1.80;;
8036;SDS011;4061;51.360;7.340;2023-07-30T01:29:00;6.28;;;1.80;;
8036;SDS011;4061;51.360;7.340;2023-07-30T01:31:27;7.90;;;1.90;;
8036;SDS011;4061;51.360;7.340;2023-07-30T01:34:01;7.05;;;2.10;;
8036;SDS011;4061;51.360;7.340;2023-07-30T01:36:30;5.18;;;1.73;;
8036;SDS011;4061;51.360;7.340;2023-07-30T01:39:00;4.75;;;1.90;;
8036;SDS011;4061;51.360;7.340;2023-07-30T01:41:27;6.25;;;1.33;;
8036;SDS011;4061;51.360;7.340;2023-07-30T01:43:54;1.70;;;1.60;;
8036;SDS011;4061;51.360;7.340;2023-07-30T01:46:21;6.10;;;1.75;;
8036;SDS011;4061;51.360;7.340;2023-07-30T01:48:48;5.88;;;2.03;;
8036;SDS011;4061;51.360;7.340;2023-07-30T01:51:16;2.00;;;1.48;;
8036;SDS011;4061;51.360;7.340;2023-07-30T01:53:43;4.95;;;1.52;;
8036;SDS011;4061;51.360;7.340;2023-07-30T01:56:11;6.18;;;2.00;;
8036;SDS011;4061;51.360;7.340;2023-07-30T01:58:38;4.63;;;1.58;;
8036;SDS011;4061;51.360;7.340;2023-07-30T02:01:05;6.13;;;1.70;;
8036;SDS011;4061;51.360;7.340;2023-07-30T02:03:32;12.80;;;2.45;;
8036;SDS011;4061;51.360;7.340;2023-07-30T02:05:59;3.13;;;1.90;;
8036;SDS011;4061;51.360;7.340;2023-07-30T02:08:27;2.13;;;1.92;;
8036;SDS011;4061;51.360;7.340;2023-07-30T02:10:54;6.53;;;2.00;;
8036;SDS011;4061;51.360;7.340;2023-07-30T02:13:23;3.22;;;1.80;;
8036;SDS011;4061;51.360;7.340;2023-07-30T02:15:50;4.97;;;1.77;;
8036;SDS011;4061;51.360;7.340;2023-07-30T02:18:17;5.00;;;1.83;;
8036;SDS011;4061;51.360;7.340;2023-07-30T02:20:44;2.17;;;1.50;;
8036;SDS011;4061;51.360;7.340;2023-07-30T02:23:13;2.72;;;1.80;;
8036;SDS011;4061;51.360;7.340;2023-07-30T02:25:40;7.30;;;1.98;;
8036;SDS011;4061;51.360;7.340;2023-07-30T02:28:07;3.67;;;1.58;;
8036;SDS011;4061;51.360;7.340;2023-07-30T02:30:36;3.05;;;1.50;;
8036;SDS011;4061;51.360;7.340;2023-07-30T02:33:03;2.47;;;1.67;;
8036;SDS011;4061;51.360;7.340;2023-07-30T02:35:30;5.28;;;1.65;;
8036;SDS011;4061;51.360;7.340;2023-07-30T02:37:57;6.28;;;1.80;;
8036;SDS011;4061;51.360;7.340;2023-07-30T02:40:24;2.70;;;1.48;;
8036;SDS011;4061;51.360;7.340;2023-07-30T02:42:51;7.85;;;1.23;;
8036;SDS011;4061;51.360;7.340;2023-07-30T02:45:18;1.38;;;1.38;;
8036;SDS011;4061;51.360;7.340;2023-07-30T02:47:46;4.40;;;1.55;;
8036;SDS011;4061;51.360;7.340;2023-07-30T02:50:13;3.13;;;1.88;;
8036;SDS011;4061;51.360;7.340;2023-07-30T02:52:40;2.25;;;1.90;;
8036;SDS011;4061;51.360;7.340;2023-07-30T02:55:08;11.85;;;1.95;;
8036;SDS011;4061;51.360;7.340;2023-07-30T02:57:35;5.40;;;1.30;;
8036;SDS011;4061;51.360;7.340;2023-07-30T03:00:02;4.43;;;1.75;;
8036;SDS011;4061;51.360;7.340;2023-07-30T03:02:30;6.82;;;1.70;;
8036;SDS011;4061;51.360;7.340;2023-07-30T03:04:58;5.15;;;1.33;;
8036;SDS011;4061;51.360;7.340;2023-07-30T03:07:26;6.85;;;1.85;;
8036;SDS011;4061;51.360;7.340;2023-07-30T03:09:53;4.25;;;1.30;;
8036;SDS011;4061;51.360;7.340;2023-07-30T03:12:20;3.47;;;1.55;;
8036;SDS011;4061;51.360;7.340;2023-07-30T03:14:47;7.22;;;2.08;;
8036;SDS011;4061;51.360;7.340;2023-07-30T03:17:14;10.75;;;2.03;;
8036;SDS011;4061;51.360;7.340;2023-07-30T03:19:41;3.85;;;1.85;;
8036;SDS011;4061;51.360;7.340;2023-07-30T03:22:09;3.53;;;1.60;;
8036;SDS011;4061;51.360;7.340;2023-07-30T03:24:37;4.80;;;1.33;;
8036;SDS011;4061;51.360;7.340;2023-07-30T03:27:04;4.78;;;1.65;;
8036;SDS011;4061;51.360;7.340;2023-07-30T03:29:31;3.28;;;1.75;;
8036;SDS011;4061;51.360;7.340;2023-07-30T03:31:58;6.10;;;2.10;;
8036;SDS011;4061;51.360;7.340;2023-07-30T03:34:25;2.63;;;1.42;;
8036;SDS011;4061;51.360;7.340;2023-07-30T03:36:52;10.63;;;1.98;;
8036;SDS011;4061;51.360;7.340;2023-07-30T03:39:21;2.78;;;1.70;;
8036;SDS011;4061;51.360;7.340;2023-07-30T03:41:48;2.63;;;1.90;;
8036;SDS011;4061;51.360;7.340;2023-07-30T03:44:15;3.55;;;1.65;;
8036;SDS011;4061;51.360;7.340;2023-07-30T03:46:42;2.63;;;1.60;;
8036;SDS011;4061;51.360;7.340;2023-07-30T03:49:09;3.50;;;1.55;;
8036;SDS011;4061;51.360;7.340;2023-07-30T03:51:36;4.38;;;1.88;;
8036;SDS011;4061;51.360;7.340;2023-07-30T03:54:04;10.65;;;2.47;;
8036;SDS011;4061;51.360;7.340;2023-07-30T03:56:33;1.88;;;1.60;;
8036;SDS011;4061;51.360;7.340;2023-07-30T03:59:00;6.55;;;1.70;;
8036;SDS011;4061;51.360;7.340;2023-07-30T04:01:27;5.00;;;1.90;;
8036;SDS011;4061;51.360;7.340;2023-07-30T04:03:54;5.00;;;1.90;;
8036;SDS011;4061;51.360;7.340;2023-07-30T04:06:21;1.48;;;1.38;;
8036;SDS011;4061;51.360;7.340;2023-07-30T04:08:48;5.45;;;2.47;;
8036;SDS011;4061;51.360;7.340;2023-07-30T04:11:15;7.25;;;2.10;;
8036;SDS011;4061;51.360;7.340;2023-07-30T04:13:43;3.92;;;1.65;;
8036;SDS011;4061;51.360;7.340;2023-07-30T04:16:10;4.57;;;2.15;;
8036;SDS011;4061;51.360;7.340;2023-07-30T04:18:38;1.77;;;1.35;;
8036;SDS011;4061;51.360;7.340;2023-07-30T04:21:05;7.03;;;1.95;;
8036;SDS011;4061;51.360;7.340;2023-07-30T04:23:32;6.55;;;1.83;;
8036;SDS011;4061;51.360;7.340;2023-07-30T04:25:59;4.35;;;1.60;;
8036;SDS011;4061;51.360;7.340;2023-07-30T04:28:26;5.47;;;1.70;;
8036;SDS011;4061;51.360;7.340;2023-07-30T04:30:54;4.13;;;1.42;;
8036;SDS011;4061;51.360;7.340;2023-07-30T04:33:21;4.85;;;1.40;;
8036;SDS011;4061;51.360;7.340;2023-07-30T04:35:48;7.43;;;1.65;;
8036;SDS011;4061;51.360;7.340;2023-07-30T04:38:15;3.80;;;1.30;;
8036;SDS011;4061;51.360;7.340;2023-07-30T04:40:42;8.05;;;1.77;;
8036;SDS011;4061;51.360;7.340;2023-07-30T04:43:09;3.05;;;1.40;;
8036;SDS011;4061;51.360;7.340;2023-07-30T04:45:36;5.22;;;1.42;;
8036;SDS011;4061;51.360;7.340;2023-07-30T04:48:05;4.43;;;1.30;;
8036;SDS011;4061;51.360;7.340;2023-07-30T04:50:32;4.55;;;1.00;;
8036;SDS011;4061;51.360;7.340;2023-07-30T04:52:59;7.07;;;1.48;;
8036;SDS011;4061;51.360;7.340;2023-07-30T04:55:26;2.08;;;1.05;;
8036;SDS011;4061;51.360;7.340;2023-07-30T04:57:53;2.63;;;1.20;;
8036;SDS011;4061;51.360;7.340;2023-07-30T05:00:20;5.93;;;1.17;;
8036;SDS011;4061;51.360;7.340;2023-07-30T05:02:47;3.50;;;1.20;;
8036;SDS011;4061;51.360;7.340;2023-07-30T05:05:16;6.78;;;1.23;;
8036;SDS011;4061;51.360;7.340;2023-07-30T05:07:43;13.38;;;1.60;;
8036;SDS011;4061;51.360;7.340;2023-07-30T05:10:10;4.13;;;1.00;;
8036;SDS011;4061;51.360;7.340;2023-07-30T05:12:37;3.50;;;1.25;;
8036;SDS011;4061;51.360;7.340;2023-07-30T05:15:04;3.40;;;1.08;;
8036;SDS011;4061;51.360;7.340;2023-07-30T05:17:32;8.98;;;1.50;;
8036;SDS011;4061;51.360;7.340;2023-07-30T05:19:59;4.47;;;0.80;;
8036;SDS011;4061;51.360;7.340;2023-07-30T05:22:27;1.30;;;0.98;;
8036;SDS011;4061;51.360;7.340;2023-07-30T05:24:54;8.55;;;1.50;;
8036;SDS011;4061;51.360;7.340;2023-07-30T05:27:21;5.30;;;1.10;;
8036;SDS011;4061;51.360;7.340;2023-07-30T05:29:48;3.38;;;1.40;;
8036;SDS011;4061;51.360;7.340;2023-07-30T05:32:15;2.50;;;1.25;;
8036;SDS011;4061;51.360;7.340;2023-07-30T05:34:42;4.80;;;1.10;;
8036;SDS011;4061;51.360;7.340;2023-07-30T05:37:10;8.32;;;1.50;;
8036;SDS011;4061;51.360;7.340;2023-07-30T05:39:38;8.80;;;1.75;;
8036;SDS011;4061;51.360;7.340;2023-07-30T05:42:05;6.65;;;1.20;;
8036;SDS011;4061;51.360;7.340;2023-07-30T05:44:32;4.85;;;1.60;;
8036;SDS011;4061;51.360;7.340;2023-07-30T05:46:59;6.05;;;0.93;;
8036;SDS011;4061;51.360;7.340;2023-07-30T05:49:26;3.58;;;1.23;;
8036;SDS011;4061;51.360;7.340;2023-07-30T05:51:53;7.57;;;1.00;;
8036;SDS011;4061;51.360;7.340;2023-07-30T05:54:20;7.20;;;1.33;;
8036;SDS011;4061;51.360;7.340;2023-07-30T05:56:51;7.10;;;1.40;;
8036;SDS011;4061;51.360;7.340;2023-07-30T05:59:18;1.33;;;1.23;;
8036;SDS011;4061;51.360;7.340;2023-07-30T06:01:45;3.63;;;1.42;;
8036;SDS011;4061;51.360;7.340;2023-07-30T06:04:12;2.67;;;1.30;;
8036;SDS011;4061;51.360;7.340;2023-07-30T06:06:39;3.75;;;1.13;;
8036;SDS011;4061;51.360;7.340;2023-07-30T06:09:06;3.42;;;1.20;;
8036;SDS011;4061;51.360;7.340;2023-07-30T06:11:33;5.30;;;1.27;;
8036;SDS011;4061;51.360;7.340;2023-07-30T06:14:01;4.47;;;1.02;;
8036;SDS011;4061;51.360;7.340;2023-07-30T06:16:29;4.10;;;1.17;;
8036;SDS011;4061;51.360;7.340;2023-07-30T06:18:56;1.88;;;0.73;;
8036;SDS011;4061;51.360;7.340;2023-07-30T06:21:23;4.07;;;1.00;;
8036;SDS011;4061;51.360;7.340;2023-07-30T06:23:50;2.05;;;1.00;;
8036;SDS011;4061;51.360;7.340;2023-07-30T06:26:17;8.82;;;1.23;;
8036;SDS011;4061;51.360;7.340;2023-07-30T06:28:44;3.67;;;1.17;;
8036;SDS011;4061;51.360;7.340;2023-07-30T06:31:12;2.65;;;1.10;;
8036;SDS011;4061;51.360;7.340;2023-07-30T06:33:39;3.05;;;0.85;;
8036;SDS011;4061;51.360;7.340;2023-07-30T06:36:06;2.80;;;0.75;;
8036;SDS011;4061;51.360;7.340;2023-07-30T06:38:33;2.28;;;0.82;;
8036;SDS011;4061;51.360;7.340;2023-07-30T06:41:01;4.28;;;0.85;;
8036;SDS011;4061;51.360;7.340;2023-07-30T06:43:28;7.90;;;1.23;;
8036;SDS011;4061;51.360;7.340;2023-07-30T06:45:55;4.30;;;1.40;;
8036;SDS011;4061;51.360;7.340;2023-07-30T06:48:23;5.88;;;1.58;;
8036;SDS011;4061;51.360;7.340;2023-07-30T06:50:50;5.53;;;1.73;;
8036;SDS011;4061;51.360;7.340;2023-07-30T06:53:17;5.50;;;1.60;;
8036;SDS011;4061;51.360;7.340;2023-07-30T06:55:44;1.23;;;1.15;;
8036;SDS011;4061;51.360;7.340;2023-07-30T06:58:12;3.50;;;1.05;;
8036;SDS011;4061;51.360;7.340;2023-07-30T07:00:39;3.70;;;0.77;;
8036;SDS011;4061;51.360;7.340;2023-07-30T07:03:06;5.03;;;1.20;;
8036;SDS011;4061;51.360;7.340;2023-07-30T07:05:35;4.93;;;1.23;;
8036;SDS011;4061;51.360;7.340;2023-07-30T07:08:02;2.92;;;1.20;;
8036;SDS011;4061;51.360;7.340;2023-07-30T07:10:29;5.13;;;1.23;;
8036;SDS011;4061;51.360;7.340;2023-07-30T07:12:56;2.33;;;1.17;;
8036;SDS011;4061;51.360;7.340;2023-07-30T07:15:23;3.90;;;1.23;;
8036;SDS011;4061;51.360;7.340;2023-07-30T07:17:50;3.28;;;1.50;;
8036;SDS011;4061;51.360;7.340;2023-07-30T07:20:17;7.47;;;1.70;;
8036;SDS011;4061;51.360;7.340;2023-07-30T07:22:46;8.25;;;1.67;;
8036;SDS011;4061;51.360;7.340;2023-07-30T07:25:13;4.10;;;1.67;;
8036;SDS011;4061;51.360;7.340;2023-07-30T07:27:44;5.13;;;1.58;;
8036;SDS011;4061;51.360;7.340;2023-07-30T07:30:11;2.47;;;1.27;;
8036;SDS011;4061;51.360;7.340;2023-07-30T07:32:38;8.27;;;1.20;;
8036;SDS011;4061;51.360;7.340;2023-07-30T07:35:06;11.75;;;3.08;;
8036;SDS011;4061;51.360;7.340;2023-07-30T07:37:33;3.53;;;1.27;;
8036;SDS011;4061;51.360;7.340;2023-07-30T07:40:01;5.72;;;1.65;;
8036;SDS011;4061;51.360;7.340;2023-07-30T07:42:29;5.88;;;1.33;;
8036;SDS011;4061;51.360;7.340;2023-07-30T07:44:56;8.02;;;1.63;;
8036;SDS011;4061;51.360;7.340;2023-07-30T07:47:23;4.93;;;1.83;;
8036;SDS011;4061;51.360;7.340;2023-07-30T07:49:50;4.35;;;1.35;;
8036;SDS011;4061;51.360;7.340;2023-07-30T07:52:17;6.00;;;1.30;;
8036;SDS011;4061;51.360;7.340;2023-07-30T07:54:45;8.45;;;1.50;;
8036;SDS011;4061;51.360;7.340;2023-07-30T07:57:14;7.65;;;1.20;;
8036;SDS011;4061;51.360;7.340;2023-07-30T07:59:41;5.22;;;1.52;;
8036;SDS011;4061;51.360;7.340;2023-07-30T08:02:10;4.63;;;1.23;;
8036;SDS011;4061;51.360;7.340;2023-07-30T08:04:37;11.60;;;1.65;;
8036;SDS011;4061;51.360;7.340;2023-07-30T08:07:04;6.85;;;1.38;;
8036;SDS011;4061;51.360;7.340;2023-07-30T08:09:31;8.68;;;2.08;;
8036;SDS011;4061;51.360;7.340;2023-07-30T08:11:58;5.43;;;1.77;;
8036;SDS011;4061;51.360;7.340;2023-07-30T08:14:27;5.50;;;1.60;;
8036;SDS011;4061;51.360;7.340;2023-07-30T08:16:54;8.95;;;1.45;;
8036;SDS011;4061;51.360;7.340;2023-07-30T08:19:21;1.98;;;1.38;;
8036;SDS011;4061;51.360;7.340;2023-07-30T08:21:48;6.50;;;1.60;;
8036;SDS011;4061;51.360;7.340;2023-07-30T08:24:15;6.55;;;1.02;;
8036;SDS011;4061;51.360;7.340;2023-07-30T08:26:42;5.68;;;1.40;;
8036;SDS011;4061;51.360;7.340;2023-07-30T08:29:09;9.18;;;1.98;;
8036;SDS011;4061;51.360;7.340;2023-07-30T08:31:39;5.07;;;1.27;;
8036;SDS011;4061;51.360;7.340;2023-07-30T08:34:07;5.75;;;1.80;;
8036;SDS011;4061;51.360;7.340;2023-07-30T08:36:34;2.60;;;1.00;;
8036;SDS011;4061;51.360;7.340;2023-07-30T08:39:01;3.90;;;1.42;;
8036;SDS011;4061;51.360;7.340;2023-07-30T08:41:29;3.75;;;1.13;;
8036;SDS011;4061;51.360;7.340;2023-07-30T08:43:56;10.55;;;1.98;;
8036;SDS011;4061;51.360;7.340;2023-07-30T08:46:23;9.60;;;1.90;;
8036;SDS011;4061;51.360;7.340;2023-07-30T08:48:52;11.80;;;1.50;;
8036;SDS011;4061;51.360;7.340;2023-07-30T08:51:19;6.07;;;1.27;;
8036;SDS011;4061;51.360;7.340;2023-07-30T08:53:50;3.75;;;1.10;;
8036;SDS011;4061;51.360;7.340;2023-07-30T08:56:18;3.00;;;1.00;;
8036;SDS011;4061;51.360;7.340;2023-07-30T08:58:45;3.90;;;0.90;;
8036;SDS011;4061;51.360;7.340;2023-07-30T09:01:12;7.82;;;1.23;;
8036;SDS011;4061;51.360;7.340;2023-07-30T09:03:47;5.80;;;1.40;;
8036;SDS011;4061;51.360;7.340;2023-07-30T09:06:17;2.88;;;1.05;;
8036;SDS011;4061;51.360;7.340;2023-07-30T09:08:44;4.80;;;1.52;;
8036;SDS011;4061;51.360;7.340;2023-07-30T09:11:11;5.68;;;1.40;;
8036;SDS011;4061;51.360;7.340;2023-07-30T09:13:38;4.80;;;1.10;;
8036;SDS011;4061;51.360;7.340;2023-07-30T09:16:09;11.63;;;1.15;;
8036;SDS011;4061;51.360;7.340;2023-07-30T09:18:40;4.45;;;1.30;;
8036;SDS011;4061;51.360;7.340;2023-07-30T09:21:07;6.20;;;1.42;;
8036;SDS011;4061;51.360;7.340;2023-07-30T09:23:40;8.32;;;1.45;;
8036;SDS011;4061;51.360;7.340;2023-07-30T09:26:07;4.70;;;0.93;;
8036;SDS011;4061;51.360;7.340;2023-07-30T09:28:34;7.95;;;1.48;;
8036;SDS011;4061;51.360;7.340;2023-07-30T09:31:01;16.90;;;2.00;;
8036;SDS011;4061;51.360;7.340;2023-07-30T09:33:29;11.18;;;1.58;;
8036;SDS011;4061;51.360;7.340;2023-07-30T09:35:56;14.73;;;1.45;;
8036;SDS011;4061;51.360;7.340;2023-07-30T09:38:23;13.60;;;1.58;;
8036;SDS011;4061;51.360;7.340;2023-07-30T09:40:52;9.05;;;1.80;;
8036;SDS011;4061;51.360;7.340;2023-07-30T09:43:19;4.88;;;0.90;;
8036;SDS011;4061;51.360;7.340;2023-07-30T09:45:46;9.27;;;1.13;;
8036;SDS011;4061;51.360;7.340;2023-07-30T09:48:13;9.55;;;1.17;;
8036;SDS011;4061;51.360;7.340;2023-07-30T09:50:41;6.82;;;0.90;;
8036;SDS011;4061;51.360;7.340;2023-07-30T09:53:08;6.72;;;1.17;;
8036;SDS011;4061;51.360;7.340;2023-07-30T09:55:35;5.38;;;0.88;;
8036;SDS011;4061;51.360;7.340;2023-07-30T09:58:04;7.43;;;1.15;;
8036;SDS011;4061;51.360;7.340;2023-07-30T10:00:32;4.57;;;1.00;;
8036;SDS011;4061;51.360;7.340;2023-07-30T10:02:59;2.55;;;0.80;;
8036;SDS011;4061;51.360;7.340;2023-07-30T10:05:28;7.22;;;0.80;;
8036;SDS011;4061;51.360;7.340;2023-07-30T10:07:57;7.85;;;1.20;;
8036;SDS011;4061;51.360;7.340;2023-07-30T10:10:27;6.10;;;1.05;;
8036;SDS011;4061;51.360;7.340;2023-07-30T10:12:55;5.00;;;1.05;;
8036;SDS011;4061;51.360;7.340;2023-07-30T10:15:25;4.55;;;1.33;;
8036;SDS011;4061;51.360;7.340;2023-07-30T10:17:52;4.78;;;1.00;;
8036;SDS011;4061;51.360;7.340;2023-07-30T10:20:20;2.88;;;0.93;;
8036;SDS011;4061;51.360;7.340;2023-07-30T10:22:50;1.88;;;0.77;;
8036;SDS011;4061;51.360;7.340;2023-07-30T10:25:17;4.22;;;0.85;;
8036;SDS011;4061;51.360;7.340;2023-07-30T10:27:48;2.60;;;0.80;;
8036;SDS011;4061;51.360;7.340;2023-07-30T10:30:16;8.52;;;1.00;;
8036;SDS011;4061;51.360;7.340;2023-07-30T10:32:58;3.05;;;0.70;;
8036;SDS011;4061;51.360;7.340;2023-07-30T10:38:15;3.17;;;0.85;;
8036;SDS011;4061;51.360;7.340;2023-07-30T10:40:46;2.72;;;1.00;;
8036;SDS011;4061;51.360;7.340;2023-07-30T10:43:27;4.53;;;0.80;;
8036;SDS011;4061;51.360;7.340;2023-07-30T10:45:54;4.03;;;0.60;;
8036;SDS011;4061;51.360;7.340;2023-07-30T10:48:30;3.10;;;0.68;;
8036;SDS011;4061;51.360;7.340;2023-07-30T10:50:58;5.25;;;0.68;;
8036;SDS011;4061;51.360;7.340;2023-07-30T10:53:26;3.28;;;1.10;;
8036;SDS011;4061;51.360;7.340;2023-07-30T10:55:53;3.95;;;0.95;;
8036;SDS011;4061;51.360;7.340;2023-07-30T10:58:24;3.72;;;0.70;;
8036;SDS011;4061;51.360;7.340;2023-07-30T11:00:53;3.80;;;0.70;;
8036;SDS011;4061;51.360;7.340;2023-07-30T11:03:24;2.00;;;0.60;;
8036;SDS011;4061;51.360;7.340;2023-07-30T11:05:53;4.40;;;1.00;;
8036;SDS011;4061;51.360;7.340;2023-07-30T11:08:21;1.92;;;0.65;;
8036;SDS011;4061;51.360;7.340;2023-07-30T11:10:48;5.47;;;1.05;;
8036;SDS011;4061;51.360;7.340;2023-07-30T11:13:15;7.32;;;0.95;;
8036;SDS011;4061;51.360;7.340;2023-07-30T11:15:42;3.33;;;0.65;;
8036;SDS011;4061;51.360;7.340;2023-07-30T11:18:10;0.55;;;0.30;;
8036;SDS011;4061;51.360;7.340;2023-07-30T11:20:38;1.55;;;0.95;;
8036;SDS011;4061;51.360;7.340;2023-07-30T11:23:19;3.67;;;0.80;;
8036;SDS011;4061;51.360;7.340;2023-07-30T11:25:50;6.57;;;0.75;;
8036;SDS011;4061;51.360;7.340;2023-07-30T11:28:29;1.88;;;0.68;;
8036;SDS011;4061;51.360;7.340;2023-07-30T11:31:00;2.97;;;0.90;;
8036;SDS011;4061;51.360;7.340;2023-07-30T11:33:27;6.43;;;1.00;;
8036;SDS011;4061;51.360;7.340;2023-07-30T11:35:55;4.93;;;0.70;;
8036;SDS011;4061;51.360;7.340;2023-07-30T11:38:24;9.73;;;0.75;;
8036;SDS011;4061;51.360;7.340;2023-07-30T11:40:51;5.50;;;0.73;;
8036;SDS011;4061;51.360;7.340;2023-07-30T11:43:19;3.90;;;1.08;;
8036;SDS011;4061;51.360;7.340;2023-07-30T11:45:46;6.53;;;1.10;;
8036;SDS011;4061;51.360;7.340;2023-07-30T11:48:14;3.78;;;1.00;;
8036;SDS011;4061;51.360;7.340;2023-07-30T11:50:44;3.33;;;0.50;;
8036;SDS011;4061;51.360;7.340;2023-07-30T11:53:12;4.25;;;0.75;;
8036;SDS011;4061;51.360;7.340;2023-07-30T11:55:41;6.35;;;0.90;;
8036;SDS011;4061;51.360;7.340;2023-07-30T11:58:09;2.63;;;0.55;;
8036;SDS011;4061;51.360;7.340;2023-07-30T12:00:36;2.75;;;0.75;;
8036;SDS011;4061;51.360;7.340;2023-07-30T12:03:03;3.80;;;1.08;;
8036;SDS011;4061;51.360;7.340;2023-07-30T12:05:31;6.85;;;0.98;;
8036;SDS011;4061;51.360;7.340;2023-07-30T12:07:59;4.85;;;0.90;;
8036;SDS011;4061;51.360;7.340;2023-07-30T12:10:28;1.10;;;0.50;;
8036;SDS011;4061;51.360;7.340;2023-07-30T12:13:12;3.50;;;0.80;;
8036;SDS011;4061;51.360;7.340;2023-07-30T12:15:39;3.17;;;0.70;;
8036;SDS011;4061;51.360;7.340;2023-07-30T12:18:06;2.00;;;0.82;;
8036;SDS011;4061;51.360;7.340;2023-07-30T12:20:33;6.70;;;0.60;;
8036;SDS011;4061;51.360;7.340;2023-07-30T12:23:01;10.05;;;0.70;;
8036;SDS011;4061;51.360;7.340;2023-07-30T12:25:29;1.38;;;0.40;;
8036;SDS011;4061;51.360;7.340;2023-07-30T12:27:56;2.80;;;0.80;;
8036;SDS011;4061;51.360;7.340;2023-07-30T12:30:24;4.88;;;0.40;;
8036;SDS011;4061;51.360;7.340;2023-07-30T12:32:52;2.38;;;0.60;;
8036;SDS011;4061;51.360;7.340;2023-07-30T12:35:19;4.32;;;0.45;;
8036;SDS011;4061;51.360;7.340;2023-07-30T12:37:46;1.80;;;0.30;;
8036;SDS011;4061;51.360;7.340;2023-07-30T12:40:13;2.95;;;0.93;;
8036;SDS011;4061;51.360;7.340;2023-07-30T12:42:40;2.70;;;0.45;;
8036;SDS011;4061;51.360;7.340;2023-07-30T12:45:08;2.47;;;0.68;;
8036;SDS011;4061;51.360;7.340;2023-07-30T12:47:36;4.85;;;0.63;;
8036;SDS011;4061;51.360;7.340;2023-07-30T12:50:04;1.92;;;0.70;;
8036;SDS011;4061;51.360;7.340;2023-07-30T12:52:31;5.30;;;0.55;;
8036;SDS011;4061;51.360;7.340;2023-07-30T12:54:58;1.15;;;0.40;;
8036;SDS011;4061;51.360;7.340;2023-07-30T12:57:25;1.80;;;0.75;;
8036;SDS011;4061;51.360;7.340;2023-07-30T12:59:52;2.17;;;0.57;;
8036;SDS011;4061;51.360;7.340;2023-07-30T13:02:19;2.50;;;0.40;;
8036;SDS011;4061;51.360;7.340;2023-07-30T13:04:48;0.98;;;0.35;;
8036;SDS011;4061;51.360;7.340;2023-07-30T13:07:15;2.60;;;0.50;;
8036;SDS011;4061;51.360;7.340;2023-07-30T13:09:42;1.02;;;0.30;;
8036;SDS011;4061;51.360;7.340;2023-07-30T13:12:09;0.88;;;0.40;;
8036;SDS011;4061;51.360;7.340;2023-07-30T13:14:36;1.75;;;0.47;;
8036;SDS011;4061;51.360;7.340;2023-07-30T13:17:03;0.88;;;0.30;;
8036;SDS011;4061;51.360;7.340;2023-07-30T13:19:30;2.17;;;0.40;;
8036;SDS011;4061;51.360;7.340;2023-07-30T13:21:59;0.70;;;0.30;;
8036;SDS011;4061;51.360;7.340;2023-07-30T13:24:26;3.50;;;0.28;;
8036;SDS011;4061;51.360;7.340;2023-07-30T13:26:56;1.95;;;0.28;;
8036;SDS011;4061;51.360;7.340;2023-07-30T13:29:23;2.10;;;0.47;;
8036;SDS011;4061;51.360;7.340;2023-07-30T13:31:50;0.30;;;0.20;;
8036;SDS011;4061;51.360;7.340;2023-07-30T13:34:17;1.00;;;0.43;;
8036;SDS011;4061;51.360;7.340;2023-07-30T13:36:44;7.18;;;0.65;;
8036;SDS011;4061;51.360;7.340;2023-07-30T13:39:13;1.73;;;0.50;;
8036;SDS011;4061;51.360;7.340;2023-07-30T13:41:40;1.52;;;0.98;;
8036;SDS011;4061;51.360;7.340;2023-07-30T13:44:08;3.88;;;0.47;;
8036;SDS011;4061;51.360;7.340;2023-07-30T13:46:35;0.63;;;0.60;;
8036;SDS011;4061;51.360;7.340;2023-07-30T13:49:03;0.55;;;0.47;;
8036;SDS011;4061;51.360;7.340;2023-07-30T13:51:30;2.05;;;0.52;;
8036;SDS011;4061;51.360;7.340;2023-07-30T13:53:57;1.42;;;0.30;;
8036;SDS011;4061;51.360;7.340;2023-07-30T13:56:26;1.20;;;0.47;;
8036;SDS011;4061;51.360;7.340;2023-07-30T13:58:53;10.35;;;0.60;;
8036;SDS011;4061;51.360;7.340;2023-07-30T14:01:20;2.92;;;0.77;;
8036;SDS011;4061;51.360;7.340;2023-07-30T14:03:47;3.50;;;0.40;;
8036;SDS011;4061;51.360;7.340;2023-07-30T14:06:14;2.78;;;0.60;;
8036;SDS011;4061;51.360;7.340;2023-07-30T14:08:41;0.43;;;0.43;;
8036;SDS011;4061;51.360;7.340;2023-07-30T14:11:08;6.03;;;0.50;;
8036;SDS011;4061;51.360;7.340;2023-07-30T14:13:37;1.90;;;0.40;;
8036;SDS011;4061;51.360;7.340;2023-07-30T14:16:04;2.40;;;0.88;;
8036;SDS011;4061;51.360;7.340;2023-07-30T14:18:31;1.55;;;0.47;;
8036;SDS011;4061;51.360;7.340;2023-07-30T14:20:58;4.22;;;0.52;;
8036;SDS011;4061;51.360;7.340;2023-07-30T14:23:25;3.42;;;0.60;;
8036;SDS011;4061;51.360;7.340;2023-07-30T14:25:52;5.10;;;0.65;;
8036;SDS011;4061;51.360;7.340;2023-07-30T14:28:19;4.78;;;0.70;;
8036;SDS011;4061;51.360;7.340;2023-07-30T14:30:48;0.75;;;0.40;;
8036;SDS011;4061;51.360;7.340;2023-07-30T14:33:15;3.25;;;0.70;;
8036;SDS011;4061;51.360;7.340;2023-07-30T14:35:42;4.30;;;0.70;;
8036;SDS011;4061;51.360;7.340;2023-07-30T14:38:09;1.38;;;0.60;;
8036;SDS011;4061;51.360;7.340;2023-07-30T14:40:37;5.80;;;1.20;;
8036;SDS011;4061;51.360;7.340;2023-07-30T14:43:04;4.68;;;0.75;;
8036;SDS011;4061;51.360;7.340;2023-07-30T14:45:31;1.63;;;0.50;;
8036;SDS011;4061;51.360;7.340;2023-07-30T14:48:00;3.85;;;1.00;;
8036;SDS011;4061;51.360;7.340;2023-07-30T14:50:27;2.33;;;0.47;;
8036;SDS011;4061;51.360;7.340;2023-07-30T14:52:54;3.60;;;0.68;;
8036;SDS011;4061;51.360;7.340;2023-07-30T14:55:21;2.05;;;0.50;;
8036;SDS011;4061;51.360;7.340;2023-07-30T14:57:48;1.13;;;0.70;;
8036;SDS011;4061;51.360;7.340;2023-07-30T15:00:15;3.92;;;1.25;;
8036;SDS011;4061;51.360;7.340;2023-07-30T15:02:42;1.85;;;0.40;;
8036;SDS011;4061;51.360;7.340;2023-07-30T15:05:11;5.18;;;0.60;;
8036;SDS011;4061;51.360;7.340;2023-07-30T15:07:38;2.40;;;0.52;;
8036;SDS011;4061;51.360;7.340;2023-07-30T15:10:05;3.50;;;0.70;;
8036;SDS011;4061;51.360;7.340;2023-07-30T15:12:34;1.52;;;0.50;;
8036;SDS011;4061;51.360;7.340;2023-07-30T15:15:01;2.25;;;0.50;;
8036;SDS011;4061;51.360;7.340;2023-07-30T15:17:29;3.20;;;0.60;;
8036;SDS011;4061;51.360;7.340;2023-07-30T15:19:56;2.22;;;0.63;;